createdAt,value
2022-10-18T00:02:16.429Z,100839.56
2022-10-18T00:04:43.057Z,100844.75
2022-10-18T00:07:09.698Z,100850.81
2022-10-18T00:09:36.394Z,100847.16
2022-10-18T00:12:03.364Z,100848.00
2022-10-18T00:14:30.125Z,100851.00
2022-10-18T00:16:57.366Z,100849.28
2022-10-18T00:19:26.024Z,100852.53
2022-10-18T00:21:55.223Z,100851.13
2022-10-18T00:24:21.867Z,100850.28
2022-10-18T00:26:48.594Z,100860.75
2022-10-18T00:29:16.145Z,100852.00
2022-10-18T00:31:43.758Z,100857.53
2022-10-18T00:34:13.034Z,100859.09
2022-10-18T00:36:40.001Z,100850.94
2022-10-18T00:39:07.567Z,100855.16
2022-10-18T00:41:35.555Z,100853.75
2022-10-18T00:44:13.209Z,100850.34
2022-10-18T00:46:42.180Z,100850.66
2022-10-18T00:49:22.200Z,100851.81
2022-10-18T00:51:48.879Z,100849.50
2022-10-18T00:54:16.858Z,100850.22
2022-10-18T00:56:44.868Z,100851.19
2022-10-18T00:59:14.097Z,100848.69
2022-10-18T01:01:40.821Z,100848.25
2022-10-18T01:04:07.665Z,100852.06
2022-10-18T01:07:05.906Z,100844.59
2022-10-18T01:10:01.644Z,100850.28
2022-10-18T01:12:43.387Z,100849.50
2022-10-18T01:15:29.747Z,100847.16
2022-10-18T01:17:56.367Z,100851.59
2022-10-18T01:20:58.585Z,100850.13
2022-10-18T01:23:40.285Z,100852.72
2022-10-18T01:26:28.621Z,100848.91
2022-10-18T01:28:55.186Z,100850.47
2022-10-18T01:31:24.083Z,100847.09
2022-10-18T01:33:54.055Z,100856.28
2022-10-18T01:36:34.971Z,100851.09
2022-10-18T01:39:06.231Z,100844.69
2022-10-18T01:41:34.589Z,100848.91
2022-10-18T01:44:03.244Z,100845.56
2022-10-18T01:46:30.269Z,100840.22
2022-10-18T01:48:57.685Z,100842.72
2022-10-18T01:51:26.102Z,100843.72
2022-10-18T01:53:52.977Z,100844.44
2022-10-18T01:56:40.721Z,100834.31
2022-10-18T01:59:39.410Z,100836.59
2022-10-18T02:02:24.905Z,100826.56
2022-10-18T02:05:01.805Z,100831.50
2022-10-18T02:07:55.360Z,100821.09
2022-10-18T02:10:38.455Z,100818.63
2022-10-18T02:13:05.300Z,100818.19
2022-10-18T02:15:37.680Z,100821.88
2022-10-18T02:18:08.627Z,100815.97
2022-10-18T02:20:36.620Z,100820.75
2022-10-18T02:23:04.695Z,100815.09
2022-10-18T02:25:31.805Z,100818.91
2022-10-18T02:27:58.559Z,100817.06
2022-10-18T02:30:31.317Z,100811.06
2022-10-18T02:33:18.897Z,100805.44
2022-10-18T02:35:47.612Z,100812.53
2022-10-18T02:38:15.510Z,100796.94
2022-10-18T02:40:42.196Z,100798.31
2022-10-18T02:43:08.812Z,100794.25
2022-10-18T02:45:35.475Z,100788.03
2022-10-18T02:48:02.152Z,100800.28
2022-10-18T02:50:28.786Z,100791.72
2022-10-18T02:52:55.483Z,100787.06
2022-10-18T02:55:22.160Z,100785.50
2022-10-18T02:57:48.957Z,100783.94
2022-10-18T03:00:15.810Z,100791.56
2022-10-18T03:02:42.450Z,100788.59
2022-10-18T03:05:09.136Z,100787.59
2022-10-18T03:07:35.775Z,100787.59
2022-10-18T03:10:02.548Z,100790.97
2022-10-18T03:12:29.257Z,100789.97
2022-10-18T03:14:55.972Z,100793.78
2022-10-18T03:17:22.827Z,100798.06
2022-10-18T03:19:49.494Z,100801.91
2022-10-18T03:22:16.183Z,100795.66
2022-10-18T03:24:42.981Z,100801.59
2022-10-18T03:27:09.702Z,100804.66
2022-10-18T03:29:36.355Z,100805.19
2022-10-18T03:32:03.037Z,100805.63
2022-10-18T03:34:29.696Z,100800.16
2022-10-18T03:37:00.878Z,100799.31
2022-10-18T03:39:30.132Z,100795.09
2022-10-18T03:41:56.775Z,100797.78
2022-10-18T03:44:23.433Z,100795.09
2022-10-18T03:46:50.238Z,100802.56
2022-10-18T03:49:16.968Z,100809.22
2022-10-18T03:51:43.599Z,100804.72
2022-10-18T03:54:10.197Z,100807.78
2022-10-18T03:56:36.849Z,100810.03
2022-10-18T03:59:04.481Z,100805.25
2022-10-18T04:01:31.327Z,100807.09
2022-10-18T04:03:58.075Z,100802.56
2022-10-18T04:06:24.736Z,100804.28
2022-10-18T04:08:51.373Z,100801.03
2022-10-18T04:11:18.021Z,100795.66
2022-10-18T04:13:44.734Z,100800.06
2022-10-18T04:16:11.449Z,100806.94
2022-10-18T04:18:38.201Z,100802.13
2022-10-18T04:21:04.917Z,100806.66
2022-10-18T04:23:33.862Z,100804.66
2022-10-18T04:26:03.068Z,100807.19
2022-10-18T04:28:29.762Z,100818.59
2022-10-18T04:30:58.508Z,100814.78
2022-10-18T04:33:25.704Z,100820.75
2022-10-18T04:35:53.953Z,100822.19
2022-10-18T04:38:20.788Z,100823.16
2022-10-18T04:40:47.441Z,100824.16
2022-10-18T04:43:14.162Z,100823.31
2022-10-18T04:45:40.840Z,100818.94
2022-10-18T04:48:07.612Z,100827.81
2022-10-18T04:50:34.255Z,100831.50
2022-10-18T04:53:00.872Z,100834.28
2022-10-18T04:55:27.557Z,100829.22
2022-10-18T04:57:54.208Z,100823.03
2022-10-18T05:00:20.876Z,100828.50
2022-10-18T05:02:47.517Z,100825.00
2022-10-18T05:05:14.422Z,100823.31
2022-10-18T05:07:41.471Z,100831.63
2022-10-18T05:10:08.546Z,100830.78
2022-10-18T05:12:35.315Z,100828.81
2022-10-18T05:15:02.043Z,100825.00
2022-10-18T05:17:28.792Z,100820.34
2022-10-18T05:19:55.430Z,100821.63
2022-10-18T05:22:22.166Z,100820.25
2022-10-18T05:24:48.793Z,100812.63
2022-10-18T05:27:15.474Z,100815.63
2022-10-18T05:29:42.173Z,100816.19
2022-10-18T05:32:08.856Z,100812.66
2022-10-18T05:34:35.525Z,100812.81
2022-10-18T05:37:02.162Z,100818.88
2022-10-18T05:39:28.921Z,100820.16
2022-10-18T05:41:55.761Z,100814.94
2022-10-18T05:44:22.393Z,100810.28
2022-10-18T05:46:49.030Z,100814.09
2022-10-18T05:49:15.867Z,100807.50
2022-10-18T05:51:42.552Z,100808.75
2022-10-18T05:54:11.865Z,100804.66
2022-10-18T05:59:12.187Z,100816.91
2022-10-18T06:01:40.141Z,100819.16
2022-10-18T06:04:06.820Z,100820.16
2022-10-18T06:06:33.593Z,100818.63
2022-10-18T06:09:00.294Z,100821.97
2022-10-18T06:11:26.961Z,100831.72
2022-10-18T06:13:53.616Z,100820.16
2022-10-18T06:16:22.133Z,100820.44
2022-10-18T06:18:53.092Z,100823.81
2022-10-18T06:21:20.396Z,100822.84
2022-10-18T06:23:50.873Z,100824.81
2022-10-18T06:26:17.722Z,100820.69
2022-10-18T06:28:44.471Z,100820.56
2022-10-18T06:31:12.220Z,100829.28
2022-10-18T06:33:38.869Z,100831.81
2022-10-18T06:36:11.838Z,100824.22
2022-10-18T06:38:38.401Z,100833.25
2022-10-18T06:41:06.149Z,100827.31
2022-10-18T06:43:32.956Z,100831.38
2022-10-18T06:46:00.990Z,100838.59
2022-10-18T06:48:27.619Z,100834.22
2022-10-18T06:51:03.624Z,100840.28
2022-10-18T06:53:32.453Z,100837.88
2022-10-18T06:56:04.122Z,100840.13
2022-10-18T06:58:30.948Z,100843.47
2022-10-18T07:00:58.897Z,100845.31
2022-10-18T07:03:26.266Z,100843.66
2022-10-18T07:05:52.955Z,100848.56
2022-10-18T07:08:19.680Z,100849.84
2022-10-18T07:10:53.158Z,100858.31
2022-10-18T07:13:31.911Z,100858.59
2022-10-18T07:16:14.103Z,100862.53
2022-10-18T07:18:49.596Z,100862.41
2022-10-18T07:21:21.071Z,100865.78
2022-10-18T07:23:48.333Z,100862.94
2022-10-18T07:26:24.028Z,100858.00
2022-10-18T07:28:55.175Z,100864.50
2022-10-18T07:31:22.652Z,100864.34
2022-10-18T07:33:49.308Z,100868.41
2022-10-18T07:36:16.131Z,100878.16
2022-10-18T07:38:42.895Z,100874.16
2022-10-18T07:41:11.496Z,100878.84
2022-10-18T07:43:41.564Z,100881.53
2022-10-18T07:46:08.250Z,100883.06
2022-10-18T07:48:34.978Z,100884.75
2022-10-18T07:51:02.147Z,100889.28
2022-10-18T07:53:29.298Z,100900.00
2022-10-18T07:56:01.398Z,100890.13
2022-10-18T07:58:31.646Z,100896.00
2022-10-18T08:01:02.254Z,100891.66
2022-10-18T08:03:28.959Z,100904.22
2022-10-18T08:05:55.927Z,100908.44
2022-10-18T08:08:23.397Z,100911.13
2022-10-18T08:10:50.158Z,100905.59
2022-10-18T08:13:17.137Z,100913.63
2022-10-18T08:15:43.950Z,100912.66
2022-10-18T08:18:11.525Z,100911.22
2022-10-18T08:20:45.434Z,100916.19
2022-10-18T08:23:12.222Z,100912.38
2022-10-18T08:25:38.876Z,100904.88
2022-10-18T08:28:06.038Z,100906.72
2022-10-18T08:30:32.675Z,100917.44
2022-10-18T08:32:59.312Z,100912.06
2022-10-18T08:35:26.010Z,100925.34
2022-10-18T08:37:52.691Z,100930.81
2022-10-18T08:40:20.518Z,100925.78
2022-10-18T08:42:57.898Z,100928.88
2022-10-18T08:45:40.916Z,100931.97
2022-10-18T08:48:18.852Z,100921.13
2022-10-18T08:50:46.178Z,100926.59
2022-10-18T08:53:56.814Z,100912.41
2022-10-18T08:56:24.774Z,100921.50
2022-10-18T08:58:51.677Z,100925.56
2022-10-18T09:01:37.081Z,100924.63
2022-10-18T09:04:03.675Z,100922.75
2022-10-18T09:06:56.266Z,100914.41
2022-10-18T09:09:41.132Z,100912.75
2022-10-18T09:12:35.319Z,100918.94
2022-10-18T09:15:35.429Z,100917.81
2022-10-18T09:18:32.731Z,100925.00
2022-10-18T09:21:01.182Z,100915.63
2022-10-18T09:23:33.538Z,100918.47
2022-10-18T09:26:18.835Z,100925.50
2022-10-18T09:29:00.970Z,100913.78
2022-10-18T09:31:50.215Z,100915.91
2022-10-18T09:34:31.645Z,100908.84
2022-10-18T09:36:59.149Z,100912.16
2022-10-18T09:39:31.399Z,100910.19
2022-10-18T09:42:03.809Z,100911.59
2022-10-18T09:44:38.249Z,100910.59
2022-10-18T09:47:21.885Z,100914.56
2022-10-18T09:49:52.200Z,100917.06
2022-10-18T09:52:23.546Z,100912.22
2022-10-18T09:54:55.364Z,100912.91
2022-10-18T09:57:35.624Z,100924.03
2022-10-18T10:00:05.071Z,100921.06
2022-10-18T10:02:31.921Z,100916.06
2022-10-18T10:04:58.609Z,100919.59
2022-10-18T10:07:35.060Z,100916.06
2022-10-18T10:10:21.339Z,100926.41
2022-10-18T10:12:49.089Z,100923.69
2022-10-18T10:15:29.556Z,100931.03
2022-10-18T10:18:18.007Z,100934.94
2022-10-18T10:20:51.472Z,100939.16
2022-10-18T10:23:37.435Z,100941.19
2022-10-18T10:26:06.980Z,100943.63
2022-10-18T10:28:37.227Z,100937.09
2022-10-18T10:31:27.167Z,100936.41
2022-10-18T10:34:13.921Z,100930.72
2022-10-18T10:36:51.649Z,100925.75
2022-10-18T10:39:19.941Z,100926.53
2022-10-18T10:41:54.657Z,100929.91
2022-10-18T10:44:23.300Z,100932.50
2022-10-18T10:46:51.018Z,100936.25
2022-10-18T10:52:26.972Z,100926.91
2022-10-18T10:55:05.725Z,100930.63
2022-10-18T10:57:32.732Z,100924.69
2022-10-18T10:59:59.792Z,100926.03
2022-10-18T11:02:31.787Z,100931.41
2022-10-18T11:05:19.766Z,100940.94
2022-10-18T11:07:46.705Z,100930.63
2022-10-18T11:10:19.606Z,100920.06
2022-10-18T11:12:46.767Z,100924.69
2022-10-18T11:15:36.365Z,100927.34
2022-10-18T11:18:25.772Z,100926.88
2022-10-18T11:20:58.437Z,100929.56
2022-10-18T11:23:30.523Z,100923.50
2022-10-18T11:26:12.093Z,100922.09
2022-10-18T11:29:15.254Z,100919.88
2022-10-18T11:32:00.095Z,100912.38
2022-10-18T11:34:26.981Z,100908.06
2022-10-18T11:37:23.018Z,100913.44
2022-10-18T11:39:58.351Z,100924.19
2022-10-18T11:42:48.128Z,100911.53
2022-10-18T11:45:32.040Z,100916.72
2022-10-18T11:48:05.743Z,100915.44
2022-10-18T11:50:48.378Z,100914.88
2022-10-18T11:53:29.038Z,100917.19
2022-10-18T11:56:13.565Z,100912.19
2022-10-18T11:58:55.195Z,100906.03
2022-10-18T12:01:49.917Z,100900.19
2022-10-18T12:04:21.128Z,100906.13
2022-10-18T12:06:51.071Z,100893.75
2022-10-18T12:09:20.677Z,100890.72
2022-10-18T12:11:55.795Z,100897.78
2022-10-18T12:14:30.006Z,100887.56
2022-10-18T12:17:27.979Z,100888.75
2022-10-18T12:19:48.052Z,100893.13
2022-10-18T12:22:23.200Z,100903.22
2022-10-18T12:24:50.026Z,100899.84
2022-10-18T12:27:17.225Z,100905.56
2022-10-18T12:29:51.604Z,100893.75
2022-10-18T12:32:22.446Z,100893.41
2022-10-18T12:34:54.625Z,100894.25
2022-10-18T12:37:36.724Z,100885.34
2022-10-18T12:40:13.453Z,100885.34
2022-10-18T12:42:45.978Z,100894.25
2022-10-18T12:45:34.819Z,100886.16
2022-10-18T12:48:08.382Z,100881.13
2022-10-18T12:50:37.622Z,100882.88
2022-10-18T12:53:10.342Z,100886.22
2022-10-18T12:55:39.493Z,100879.53
2022-10-18T12:58:30.340Z,100880.66
2022-10-18T13:01:02.256Z,100886.41
2022-10-18T13:03:38.869Z,100877.78
2022-10-18T13:06:06.785Z,100886.56
2022-10-18T13:08:43.137Z,100886.53
2022-10-18T13:11:10.036Z,100881.66
2022-10-18T13:13:54.961Z,100881.63
2022-10-18T13:16:45.686Z,100884.16
2022-10-18T13:19:28.591Z,100880.94
2022-10-18T13:22:32.889Z,100878.41
2022-10-18T13:25:25.585Z,100885.47
2022-10-18T13:28:16.172Z,100877.56
2022-10-18T13:30:58.771Z,100882.44
2022-10-18T13:33:30.702Z,100881.63
2022-10-18T13:35:59.507Z,100884.16
2022-10-18T13:38:34.292Z,100884.31
2022-10-18T13:41:16.961Z,100876.91
2022-10-18T13:43:52.844Z,100882.28
2022-10-18T13:46:20.412Z,100884.44
2022-10-18T13:48:51.577Z,100880.09
2022-10-18T13:51:38.700Z,100891.66
2022-10-18T13:54:31.989Z,100896.69
2022-10-18T13:57:17.351Z,100887.53
2022-10-18T13:59:53.897Z,100899.72
2022-10-18T14:02:51.558Z,100891.28
2022-10-18T14:05:33.646Z,100903.22
2022-10-18T14:08:08.160Z,100898.53
2022-10-18T14:11:01.810Z,100906.63
2022-10-18T14:13:39.629Z,100900.41
2022-10-18T14:16:28.375Z,100904.94
2022-10-18T14:19:01.559Z,100903.91
2022-10-18T14:21:34.482Z,100910.13
2022-10-18T14:24:00.974Z,100910.19
2022-10-18T14:26:29.219Z,100906.94
2022-10-18T14:29:06.459Z,100910.09
2022-10-18T14:31:33.564Z,100908.63
2022-10-18T14:34:01.008Z,100908.47
2022-10-18T14:36:34.426Z,100907.78
2022-10-18T14:39:04.264Z,100913.00
2022-10-18T14:41:32.872Z,100916.53
2022-10-18T14:44:14.665Z,100916.47
2022-10-18T14:46:52.954Z,100918.16
2022-10-18T14:49:20.345Z,100918.19
2022-10-18T14:51:52.266Z,100906.94
2022-10-18T14:54:31.840Z,100906.25
2022-10-18T14:57:00.514Z,100910.13
2022-10-18T14:59:28.994Z,100911.84
2022-10-18T15:02:01.820Z,100912.69
2022-10-18T15:04:32.765Z,100916.25
2022-10-18T15:07:04.653Z,100912.00
2022-10-18T15:09:34.593Z,100916.53
2022-10-18T15:12:04.086Z,100911.84
2022-10-18T15:14:30.937Z,100910.00
2022-10-18T15:17:04.926Z,100913.84
2022-10-18T15:19:34.402Z,100911.84
2022-10-18T15:25:05.773Z,100897.66
2022-10-18T15:27:36.281Z,100898.88
2022-10-18T15:30:34.901Z,100901.19
2022-10-18T15:33:03.840Z,100901.72
2022-10-18T15:35:33.348Z,100905.41
2022-10-18T15:38:03.514Z,100904.56
2022-10-18T15:40:35.542Z,100911.78
2022-10-18T15:43:06.221Z,100909.25
2022-10-18T15:45:34.083Z,100909.25
2022-10-18T15:48:02.090Z,100912.94
2022-10-18T15:50:43.829Z,100912.88
2022-10-18T15:53:22.768Z,100914.59
2022-10-18T15:56:23.190Z,100914.88
2022-10-18T15:58:51.250Z,100917.78
2022-10-18T16:01:21.294Z,100923.31
2022-10-18T16:03:48.735Z,100922.34
2022-10-18T16:06:18.205Z,100919.63
2022-10-18T16:08:47.926Z,100921.50
2022-10-18T16:11:17.373Z,100913.44
2022-10-18T16:13:44.538Z,100923.31
2022-10-18T16:16:23.206Z,100921.28
2022-10-18T16:18:50.270Z,100924.31
2022-10-18T16:21:18.465Z,100923.63
2022-10-18T16:23:45.615Z,100930.03
2022-10-18T16:26:13.022Z,100930.88
2022-10-18T16:28:40.022Z,100931.00
2022-10-18T16:31:07.341Z,100929.47
2022-10-18T16:33:35.686Z,100932.16
2022-10-18T16:36:04.740Z,100933.03
2022-10-18T16:38:36.873Z,100940.53
2022-10-18T16:41:05.006Z,100946.75
2022-10-18T16:43:32.326Z,100935.16
2022-10-18T16:45:59.311Z,100938.69
2022-10-18T16:48:26.162Z,100940.88
2022-10-18T16:50:54.395Z,100945.22
2022-10-18T16:53:25.054Z,100958.66
2022-10-18T16:55:59.482Z,100964.69
2022-10-18T16:58:27.468Z,100963.53
2022-10-18T17:00:54.362Z,100954.94
2022-10-18T17:03:21.588Z,100956.94
2022-10-18T17:05:48.382Z,100960.59
2022-10-18T17:08:19.307Z,100965.81
2022-10-18T17:10:47.640Z,100967.81
2022-10-18T17:13:14.615Z,100968.66
2022-10-18T17:15:42.447Z,100972.22
2022-10-18T17:18:15.469Z,100975.31
2022-10-18T17:20:42.848Z,100977.72
2022-10-18T17:23:09.964Z,100977.72
2022-10-18T17:25:46.279Z,100976.91
2022-10-18T17:28:24.614Z,100972.63
2022-10-18T17:30:52.030Z,100977.88
2022-10-18T17:33:18.770Z,100985.09
2022-10-18T17:35:45.416Z,100982.56
2022-10-18T17:38:12.333Z,100983.38
2022-10-18T17:40:42.789Z,100990.75
2022-10-18T17:43:10.286Z,100983.53
2022-10-18T17:45:37.893Z,100991.75
2022-10-18T17:48:04.729Z,100993.75
2022-10-18T17:50:31.575Z,100996.44
2022-10-18T17:52:58.470Z,100999.28
2022-10-18T17:55:25.159Z,100993.06
2022-10-18T17:57:51.794Z,100995.03
2022-10-18T18:00:18.770Z,100996.91
2022-10-18T18:02:46.582Z,101000.59
2022-10-18T18:05:13.328Z,100993.69
2022-10-18T18:07:40.166Z,100992.81
2022-10-18T18:10:07.046Z,100998.34
2022-10-18T18:12:33.898Z,101000.34
2022-10-18T18:15:00.801Z,101001.34
2022-10-18T18:17:34.043Z,101002.03
2022-10-18T18:20:06.968Z,101001.19
2022-10-18T18:22:35.267Z,101004.88
2022-10-18T18:25:04.182Z,100999.50
2022-10-18T18:27:31.120Z,100997.81
2022-10-18T18:29:57.787Z,101000.66
2022-10-18T18:32:24.460Z,101004.19
2022-10-18T18:34:51.410Z,101009.69
2022-10-18T18:37:18.102Z,101002.50
2022-10-18T18:39:45.023Z,100996.97
2022-10-18T18:42:11.956Z,101000.22
2022-10-18T18:44:38.712Z,100996.50
2022-10-18T18:47:10.843Z,101000.72
2022-10-18T18:49:39.749Z,100993.50
2022-10-18T18:52:06.939Z,100997.34
2022-10-18T18:54:33.773Z,101006.25
2022-10-18T18:57:05.105Z,101001.19
2022-10-18T18:59:31.822Z,101007.00
2022-10-18T19:01:58.631Z,100993.44
2022-10-18T19:04:25.361Z,100999.50
2022-10-18T19:06:52.130Z,101001.19
2022-10-18T19:09:22.144Z,100999.19
2022-10-18T19:11:50.753Z,101003.88
2022-10-18T19:14:17.489Z,100995.81
2022-10-18T19:16:53.266Z,100985.25
2022-10-18T19:19:25.317Z,100987.06
2022-10-18T19:21:54.458Z,100987.06
2022-10-18T19:24:22.177Z,100979.00
2022-10-18T19:26:54.154Z,100979.88
2022-10-18T19:29:23.582Z,100975.66
2022-10-18T19:31:51.765Z,100974.78
2022-10-18T19:34:19.467Z,100979.19
2022-10-18T19:36:47.494Z,100978.47
2022-10-18T19:39:19.681Z,100980.06
2022-10-18T19:41:50.836Z,100983.47
2022-10-18T19:44:19.015Z,100981.09
2022-10-18T19:46:46.246Z,100983.78
2022-10-18T19:49:12.969Z,100973.16
2022-10-18T19:51:39.692Z,100976.00
2022-10-18T19:54:06.440Z,100977.00
2022-10-18T19:56:33.206Z,100979.69
2022-10-18T19:59:00.481Z,100975.47
2022-10-18T20:01:28.503Z,100976.63
2022-10-18T20:03:55.285Z,100975.09
2022-10-18T20:06:22.410Z,100986.66
2022-10-18T20:08:49.548Z,100989.50
2022-10-18T20:11:22.438Z,100992.19
2022-10-18T20:13:49.050Z,100987.84
2022-10-18T20:16:17.580Z,100993.22
2022-10-18T20:18:44.581Z,100999.88
2022-10-18T20:21:13.546Z,100996.31
2022-10-18T20:23:41.454Z,101002.25
2022-10-18T20:26:11.149Z,100996.03
2022-10-18T20:28:38.704Z,100997.72
2022-10-18T20:31:07.970Z,100994.56
2022-10-18T20:33:35.846Z,100994.56
2022-10-18T20:36:10.713Z,100995.88
2022-10-18T20:38:39.022Z,101000.25
2022-10-18T20:41:21.050Z,100992.84
2022-10-18T20:43:52.587Z,100993.09
2022-10-18T20:46:19.690Z,100991.94
2022-10-18T20:48:46.558Z,100988.56
2022-10-18T20:51:13.486Z,100983.81
2022-10-18T20:53:40.815Z,100987.19
2022-10-18T20:56:15.418Z,100989.94
2022-10-18T20:58:43.822Z,100992.31
2022-10-18T21:01:17.310Z,100985.25
2022-10-18T21:03:45.275Z,100989.09
2022-10-18T21:06:19.800Z,100984.56
2022-10-18T21:08:47.106Z,100988.53
2022-10-18T21:11:14.939Z,101000.28
2022-10-18T21:13:41.578Z,100992.06
2022-10-18T21:16:08.647Z,100989.69
2022-10-18T21:18:36.371Z,100983.34
2022-10-18T21:21:18.326Z,100987.50
2022-10-18T21:23:45.402Z,100992.53
2022-10-18T21:26:15.255Z,100990.69
2022-10-18T21:28:42.144Z,100988.13
2022-10-18T21:31:10.697Z,100983.78
2022-10-18T21:33:37.392Z,100991.66
2022-10-18T21:36:04.253Z,100981.63
2022-10-18T21:38:30.991Z,100979.25
2022-10-18T21:40:57.729Z,100978.25
2022-10-18T21:43:24.355Z,100975.31
2022-10-18T21:45:57.911Z,100970.53
2022-10-18T21:48:24.581Z,100966.59
2022-10-18T21:50:51.231Z,100967.59
2022-10-18T21:53:18.073Z,100960.38
2022-10-18T21:55:44.832Z,100965.75
2022-10-18T21:58:11.544Z,100960.38
2022-10-18T22:00:39.086Z,100960.06
2022-10-18T22:03:14.925Z,100966.31
2022-10-18T22:05:41.678Z,100955.72
2022-10-18T22:08:08.379Z,100959.22
2022-10-18T22:10:35.007Z,100952.03
2022-10-18T22:13:01.714Z,100954.69
2022-10-18T22:15:28.488Z,100951.88
2022-10-18T22:17:55.164Z,100945.94
2022-10-18T22:20:22.059Z,100943.13
2022-10-18T22:22:48.755Z,100951.72
2022-10-18T22:25:15.577Z,100941.28
2022-10-18T22:27:42.237Z,100938.91
2022-10-18T22:30:09.609Z,100941.59
2022-10-18T22:32:36.371Z,100945.56
2022-10-18T22:35:03.070Z,100947.09
2022-10-18T22:37:29.867Z,100943.72
2022-10-18T22:39:56.600Z,100941.63
2022-10-18T22:42:23.361Z,100951.53
2022-10-18T22:44:50.079Z,100941.25
2022-10-18T22:47:16.722Z,100944.94
2022-10-18T22:49:43.521Z,100939.41
2022-10-18T22:52:10.168Z,100940.25
2022-10-18T22:54:36.895Z,100930.38
2022-10-18T22:57:04.716Z,100933.59
2022-10-18T22:59:31.431Z,100928.38
2022-10-18T23:01:58.069Z,100935.56
2022-10-18T23:04:24.736Z,100932.06
2022-10-18T23:06:51.526Z,100927.69
2022-10-18T23:09:18.192Z,100928.97
2022-10-18T23:11:44.900Z,100931.66
2022-10-18T23:14:11.662Z,100938.00
2022-10-18T23:16:38.309Z,100943.22
2022-10-18T23:19:05.134Z,100942.97
2022-10-18T23:21:33.428Z,100950.72
2022-10-18T23:24:00.177Z,100940.94
2022-10-18T23:26:27.719Z,100954.84
2022-10-18T23:28:55.024Z,100948.06
2022-10-18T23:31:24.910Z,100954.13
2022-10-18T23:33:53.938Z,100958.09
2022-10-18T23:36:21.851Z,100951.59
2022-10-18T23:38:48.654Z,100953.88
2022-10-18T23:41:15.984Z,100963.75
2022-10-18T23:43:43.313Z,100967.84
2022-10-18T23:46:10.637Z,100968.41
2022-10-18T23:48:37.347Z,100966.16
2022-10-18T23:51:04.386Z,100972.66
2022-10-18T23:53:31.619Z,100969.97
2022-10-18T23:56:00.672Z,100980.72
2022-10-18T23:58:28.598Z,100976.50
